Date,TemperatureHighF,TemperatureAvgF,TemperatureLowF,DewpointHighF,DewpointAvgF,DewpointLowF,HumidityHigh,HumidityAvg,HumidityLow,PressureMaxIn,PressureMinIn,WindSpeedMaxMPH,WindSpeedAvgMPH,GustSpeedMaxMPH,PrecipitationSumIn
2014-1-1,32.9,27.0,19.8,17.6,12.9,5.8,64,55,48,30.40,30.14,5,0,9,0.00
2014-1-2,29.8,25.1,16.5,18.8,16.1,9.7,79,68,59,30.20,29.65,6,1,15,0.00
2014-1-3,18.5,13.1,4.1,9.5,-2.2,-14.8,75,52,30,30.45,29.61,6,0,14,0.00
2014-1-4,29.8,14.3,3.6,7.4,-2.8,-12.3,61,46,30,30.50,30.23,0,0,5,0.00
2014-1-5,51.4,26.9,18.5,51.2,19.9,5.1,99,75,54,30.28,29.60,3,0,6,0.12
2014-1-6,55.7,41.0,6.1,55.4,33.7,-21.5,99,78,25,29.93,29.40,5,0,12,0.27
2014-1-7,12.4,6.1,0.9,-14.6,-22.3,-50.4,31,25,5,30.36,29.12,5,0,14,0.00
2014-1-8,22.1,12.8,5.7,2.0,-8.3,-17.5,46,38,27,30.53,30.31,1,0,4,0.00
2014-1-9,37.9,23.6,17.1,12.2,5.3,-1.0,61,46,28,30.63,30.47,0,0,3,0.00
2014-1-10,34.9,30.1,24.3,32.8,21.7,9.1,92,72,52,30.57,30.06,2,0,6,0.14
2014-1-11,60.1,49.4,33.6,59.8,48.4,31.2,99,96,71,30.18,29.33,6,0,15,0.61
2014-1-12,49.1,41.0,31.5,48.8,31.6,24.5,99,70,53,30.10,29.44,3,0,12,0.00
2014-1-13,56.7,40.4,28.3,37.6,30.6,22.0,86,69,47,30.25,29.82,2,0,6,0.00
2014-1-14,46.4,44.0,38.3,44.2,40.7,34.5,98,89,67,29.89,29.68,2,0,8,0.26
2014-1-15,47.1,38.6,32.4,43.7,36.9,30.8,99,94,87,30.00,29.86,0,0,2,0.01
2014-1-16,40.1,36.1,27.7,36.7,31.0,22.6,88,81,76,29.96,29.84,0,0,5,0.00
2014-1-17,47.7,33.0,24.8,31.2,24.1,18.0,87,71,48,29.97,29.80,2,0,6,0.00
2014-1-18,38.9,32.3,22.8,30.5,23.0,9.8,87,69,53,29.89,29.70,3,0,8,0.06
2014-1-19,37.4,27.4,20.7,21.4,14.6,9.2,68,58,49,29.85,29.66,1,0,10,0.00
2014-1-20,43.5,35.6,25.3,28.5,23.6,7.3,69,62,46,29.94,29.59,2,0,8,0.00
2014-1-21,31.2,19.8,9.5,18.5,7.9,-7.2,71,60,43,29.98,29.80,5,0,16,0.00
2014-1-22,21.8,10.2,2.5,-0.1,-13.0,-55.3,58,35,4,30.00,29.12,7,0,11,0.00
2014-1-23,27.6,11.3,2.5,0.0,-8.4,-17.2,54,40,25,30.29,29.98,1,0,8,0.00
2014-1-24,26.2,12.8,5.5,-3.8,-8.9,-13.5,55,38,22,30.37,29.93,1,0,11,0.00
2014-1-25,24.4,19.2,13.6,16.2,6.5,-4.1,74,58,40,30.04,29.44,1,0,7,0.00
2014-1-26,25.0,19.7,13.5,13.2,1.9,-10.8,76,47,26,29.90,29.47,1,0,10,0.00
2014-1-27,40.1,26.9,15.8,24.9,8.2,-13.1,68,47,22,30.15,29.60,2,0,11,0.07
2014-1-28,19.6,14.8,10.4,1.0,-12.8,-16.6,61,28,20,30.34,30.08,1,0,3,0.02
2014-1-29,29.2,15.1,8.4,1.1,-7.5,-49.0,63,38,5,30.27,29.88,1,0,6,0.05
2014-1-30,37.9,18.5,7.5,5.2,-5.7,-13.8,45,34,21,30.44,30.12,2,0,5,0.07
2014-1-31,37.4,26.4,18.7,16.0,9.0,-0.7,56,48,33,30.24,30.08,0,0,2,0.05
2014-2-1,51.4,37.1,30.0,30.2,19.4,13.7,84,49,29,30.31,29.93,3,0,6,0.02
2014-2-2,52.2,40.6,31.3,35.7,31.8,25.4,87,72,47,30.09,29.91,0,0,2,0.01
2014-2-3,39.9,33.0,23.2,30.0,27.6,14.2,86,81,67,30.34,30.07,0,0,2,0.02
2014-2-4,40.6,28.4,20.1,25.8,18.9,11.2,78,67,54,30.45,30.21,2,0,7,0.06
2014-2-5,33.6,31.8,23.7,31.0,28.1,15.7,90,86,71,30.22,29.65,8,0,13,0.00
2014-2-6,35.2,24.6,18.5,23.5,15.0,8.0,77,67,50,30.28,29.99,0,0,0,0.02
2014-2-7,38.6,25.0,18.1,21.0,14.2,4.0,76,64,42,30.32,30.20,0,0,0,0.04
2014-2-8,28.6,22.5,16.0,12.3,6.0,-1.4,65,50,31,30.32,30.13,0,0,0,0.00
2014-2-9,29.3,21.9,17.2,17.8,9.2,2.9,76,58,41,30.17,29.99,0,0,0,0.00
2014-2-10,34.9,22.3,15.4,15.1,5.3,-2.0,76,50,28,30.29,29.99,0,0,2,0.00
2014-2-11,32.4,19.6,11.7,2.3,-2.8,-7.0,51,37,22,30.46,30.26,1,0,4,0.28
2014-2-12,29.3,18.6,7.5,15.0,0.6,-8.5,75,46,25,30.55,30.14,5,0,12,0.14
2014-2-13,33.3,28.7,20.1,30.1,24.0,-3.2,88,82,35,30.26,29.07,9,1,17,0.14
2014-2-14,42.9,33.9,29.8,29.7,25.4,20.4,89,72,49,30.02,29.08,3,0,20,0.17
2014-2-15,49.3,32.1,25.7,43.2,23.0,10.3,86,69,51,29.79,29.58,7,1,15,0.00
2014-2-16,30.7,23.7,17.8,10.3,5.7,1.4,55,46,34,30.11,29.79,0,0,3,0.00
2014-2-17,42.8,24.3,14.9,7.0,-0.1,-6.2,50,35,20,30.39,30.12,0,0,3,0.00
2014-2-18,41.5,30.7,24.3,32.1,19.5,4.2,78,64,41,30.30,29.97,2,0,6,0.08
2014-2-19,47.8,35.0,25.9,41.5,28.2,16.5,90,76,62,30.14,29.68,0,0,2,0.26
2014-2-20,55.1,39.9,30.9,32.6,26.8,19.3,87,61,26,30.26,29.95,0,0,4,0.01
2014-2-21,43.2,37.3,33.3,42.4,35.2,31.4,98,92,81,30.01,29.64,0,0,6,0.20
2014-2-22,61.2,42.8,32.2,34.4,26.7,17.7,94,59,20,30.17,29.92,0,0,2,0.01
2014-2-23,61.0,44.8,36.0,32.1,28.3,25.0,75,54,26,30.02,29.82,0,0,2,0.00
2014-2-24,42.1,34.7,25.5,27.1,12.2,0.8,63,41,23,30.08,29.82,0,0,2,0.00
2014-2-25,36.0,26.9,20.7,14.9,8.0,2.1,57,45,32,30.09,29.92,0,0,3,0.00
2014-2-26,36.9,25.0,12.6,19.9,2.9,-13.5,72,41,20,29.96,29.79,0,0,2,0.04
2014-2-27,34.2,20.5,10.0,6.8,-6.0,-19.4,46,31,20,30.11,29.61,1,0,3,0.00
2014-2-28,32.5,16.0,5.7,-2.2,-15.2,-24.4,32,23,19,30.41,30.11,0,0,2,0.00
2014-3-1,43.1,26.2,11.8,15.3,1.5,-12.5,53,35,21,30.40,30.08,0,0,2,0.00
2014-3-2,42.3,34.4,28.8,28.1,20.3,12.4,80,57,45,30.13,29.98,0,0,2,0.00
2014-3-3,29.8,20.4,14.4,13.2,-3.9,-11.9,60,34,24,30.32,30.01,1,0,6,0.00
2014-3-4,33.0,20.4,10.0,4.9,-5.5,-12.8,45,32,21,30.40,30.21,0,0,2,0.00
2014-3-5,42.3,30.2,19.8,14.3,5.7,-55.7,55,37,2,30.64,30.13,0,0,2,0.00
2014-3-6,44.8,25.8,15.1,10.1,-0.9,-10.9,50,32,20,30.61,30.36,2,0,9,0.00
2014-3-7,42.3,33.0,23.4,27.8,18.2,7.0,71,54,49,30.45,29.85,6,0,9,0.00
2014-3-8,61.2,43.5,30.4,31.8,28.6,23.2,85,58,28,29.92,29.79,0,0,2,0.04
2014-3-9,50.2,39.6,35.4,29.4,19.2,7.8,72,46,21,30.03,29.87,8,1,17,0.00
2014-3-10,57.4,42.5,34.7,29.7,23.4,16.3,65,47,30,29.95,29.58,5,1,8,0.07
2014-3-11,70.3,52.1,38.1,39.1,34.6,28.3,69,53,29,29.70,29.57,6,1,13,0.04
2014-3-12,58.5,49.0,31.3,54.2,40.8,22.0,98,74,57,29.68,29.02,14,2,27,0.20
2014-3-13,32.6,23.3,17.2,21.1,-0.7,-9.7,67,37,20,30.11,29.22,17,8,30,0.01
2014-3-14,51.9,32.6,18.7,27.8,7.7,-9.9,63,36,21,30.21,29.80,7,1,15,0.00
2014-3-15,61.0,48.4,36.3,31.8,26.1,19.4,63,44,22,30.06,29.75,9,3,20,0.00
2014-3-16,42.4,34.3,28.2,24.6,8.2,-1.5,55,35,21,30.19,30.00,12,4,17,0.00
2014-3-17,41.0,30.1,23.5,8.8,-0.5,-8.8,35,26,21,30.12,30.01,9,3,13,0.00
2014-3-18,55.2,34.3,24.4,23.3,9.2,-2.7,76,37,18,30.28,30.10,8,2,13,0.00
2014-3-19,42.1,36.0,28.4,41.3,30.9,21.2,99,82,73,30.28,29.75,8,3,15,0.57
2014-3-20,56.3,45.0,39.4,44.7,32.5,22.8,99,66,31,29.92,29.74,8,3,21,0.00
2014-3-21,56.2,43.1,33.1,23.9,19.7,14.4,59,41,21,30.05,29.91,10,3,18,0.00
2014-3-22,68.7,49.1,36.9,39.1,27.7,19.0,66,46,19,30.03,29.77,8,3,17,0.00
2014-3-23,43.2,37.8,21.6,27.3,17.6,0.6,62,46,23,30.18,29.99,9,3,17,0.00
2014-3-24,40.2,27.1,19.2,5.2,0.5,-4.0,46,33,19,30.25,30.09,10,4,21,0.00
2014-3-25,42.6,31.4,20.8,22.1,10.5,0.8,66,42,23,30.14,29.80,5,1,9,0.00
2014-3-26,36.1,31.0,21.6,22.1,6.2,-39.2,69,38,5,30.64,29.76,16,7,35,0.00
2014-3-27,47.5,32.1,19.2,21.8,5.9,-1.6,63,34,19,30.41,30.16,8,2,13,0.00
2014-3-28,61.0,45.7,32.9,53.6,38.9,18.3,98,78,50,30.24,29.97,5,1,10,0.07
2014-3-29,54.7,47.5,44.6,50.7,45.1,41.9,98,91,80,30.16,29.56,12,4,21,1.37
2014-3-30,47.7,44.9,37.6,46.6,44.1,34.9,99,97,90,29.75,29.47,10,5,17,0.51
2014-3-31,57.6,44.3,36.1,38.0,34.0,31.2,94,69,41,30.08,29.69,13,6,23,0.00
2014-4-1,63.7,47.8,34.6,37.7,33.3,27.4,85,59,33,30.14,29.97,6,1,9,0.00
2014-4-2,60.6,45.3,38.8,48.3,41.3,35.2,95,86,62,30.15,30.04,3,1,15,0.02
2014-4-3,71.2,55.0,45.1,46.7,31.0,16.7,96,49,13,30.14,29.97,6,2,11,0.02
2014-4-4,46.0,42.0,40.3,43.6,41.2,39.8,99,97,87,30.06,29.73,9,4,16,0.31
2014-4-5,56.3,45.1,34.2,46.3,34.8,22.9,99,71,37,30.10,29.72,9,3,21,0.00
2014-4-6,67.5,46.3,30.6,32.4,22.6,16.2,75,44,14,30.21,30.08,6,2,11,0.00
2014-4-7,53.1,44.6,35.4,45.4,37.6,19.5,97,78,43,30.21,29.67,10,2,15,0.28
2014-4-8,65.7,53.1,44.4,59.9,44.3,35.2,99,75,42,29.67,29.43,10,3,20,0.12
2014-4-9,64.5,51.5,41.4,39.4,31.3,21.1,82,51,20,30.03,29.64,13,3,27,0.00
2014-4-10,70.5,53.0,36.7,36.0,27.9,18.3,63,40,21,30.21,30.03,7,2,15,0.00
2014-4-11,78.1,60.7,50.2,54.8,43.2,34.6,89,55,26,30.06,29.93,8,2,15,0.00
2014-4-12,77.7,61.5,46.9,54.4,41.2,23.1,93,56,16,30.24,30.03,7,2,13,0.00
2014-4-13,84.0,65.7,50.2,57.5,50.3,36.1,85,60,35,30.20,29.98,7,2,15,0.00
2014-4-14,82.2,68.9,60.6,60.3,56.9,51.9,91,68,39,30.03,29.85,9,2,21,0.00
2014-4-15,65.8,56.2,33.4,65.6,54.3,22.2,99,94,63,30.00,29.52,12,4,23,0.86
2014-4-16,53.7,39.1,29.3,34.2,20.4,13.1,98,50,21,30.60,29.93,13,5,24,0.01
2014-4-17,57.6,43.1,32.5,33.7,25.4,16.8,86,51,30,30.71,30.56,8,3,15,0.00
2014-4-18,56.2,43.6,32.9,35.7,31.9,27.2,90,66,36,30.61,30.23,5,1,11,0.00
2014-4-19,72.3,53.3,37.8,40.9,28.8,14.8,95,50,12,30.38,30.22,10,3,18,0.00
2014-4-20,68.0,53.0,42.6,35.2,26.4,18.9,63,38,19,30.49,30.33,8,3,14,0.00
2014-4-21,78.1,56.4,36.7,44.4,26.8,14.6,69,39,11,30.33,29.89,5,1,8,0.00
2014-4-22,77.3,59.3,46.8,55.3,48.9,43.7,93,71,36,29.88,29.53,6,1,13,0.00
2014-4-23,60.6,51.8,42.1,49.2,37.4,27.5,80,59,41,29.88,29.53,17,6,29,0.00
2014-4-24,64.8,51.0,39.9,30.6,18.7,11.2,62,31,15,30.03,29.87,15,5,23,0.00
2014-4-25,75.2,55.4,40.3,45.6,24.2,14.6,97,34,12,30.06,29.71,6,2,13,0.04
2014-4-26,72.9,55.1,46.2,52.3,46.0,36.3,99,75,31,29.90,29.71,7,2,13,0.46
2014-4-27,65.7,52.3,45.0,44.5,35.6,30.2,73,54,30,30.13,29.90,10,4,20,0.00
2014-4-28,75.2,55.6,41.7,40.6,35.9,28.1,82,51,20,30.20,29.98,7,2,12,0.00
2014-4-29,54.0,46.9,41.9,43.2,41.4,38.8,99,82,61,30.38,30.09,13,5,20,0.14
2014-4-30,51.6,45.8,38.2,51.3,45.4,34.3,99,98,67,30.38,29.84,12,6,23,3.26
2014-5-1,80.6,63.4,49.6,64.5,55.3,49.3,99,79,36,30.57,29.69,6,2,14,0.22
2014-5-2,68.5,60.4,50.4,50.4,43.6,37.4,86,57,33,29.87,29.74,5,1,12,0.01
2014-5-3,72.1,58.3,48.2,52.5,43.9,39.0,97,61,34,29.89,29.75,6,1,12,0.04
2014-5-4,66.2,55.7,47.3,52.1,41.0,24.3,99,63,28,29.84,29.69,9,2,20,0.01
2014-5-5,71.4,58.7,47.8,39.4,28.7,16.0,67,36,13,29.93,29.83,10,4,20,0.00
2014-5-6,75.8,60.3,49.3,38.2,30.3,18.8,62,34,14,30.13,29.88,10,2,21,0.00
2014-5-7,74.6,60.0,47.3,50.8,34.5,28.0,94,40,21,30.25,30.09,5,1,10,0.18
2014-5-8,62.1,56.3,52.3,59.5,54.4,45.7,99,94,65,30.20,30.08,3,1,6,0.44
2014-5-9,67.8,60.3,55.4,63.8,59.1,55.1,99,96,86,30.18,29.93,3,1,7,0.00
2014-5-10,82.6,67.4,59.5,70.1,63.0,57.9,99,88,46,29.99,29.84,7,1,20,0.17
2014-5-11,84.6,70.3,57.2,62.7,52.0,40.9,99,60,24,30.10,29.90,7,1,14,0.02
2014-5-12,85.8,72.2,59.4,65.4,57.6,50.6,88,62,41,30.14,30.04,3,0,8,0.00
2014-5-13,75.4,66.3,52.3,64.7,52.5,39.4,91,64,39,30.30,30.04,2,0,9,0.00
2014-5-14,75.0,60.5,52.0,62.5,53.5,45.3,98,79,58,30.32,30.19,3,1,6,0.01
2014-5-15,77.7,68.7,59.4,75.4,66.8,58.8,99,94,81,30.24,30.01,5,1,9,0.07
2014-5-16,69.8,67.0,54.0,68.5,66.1,53.1,99,97,91,30.07,29.80,3,1,15,0.99
2014-5-17,71.6,60.4,52.5,57.6,49.4,41.8,99,71,40,30.14,29.87,5,1,8,0.01
2014-5-18,68.3,57.9,48.0,48.2,41.7,33.5,88,57,34,30.21,30.13,6,1,13,0.00
2014-5-19,75.2,59.2,47.0,49.7,40.4,31.0,75,53,23,30.24,30.09,6,1,13,0.00
2014-5-20,81.1,65.9,52.2,51.6,43.9,36.1,75,49,22,30.17,30.00,5,1,9,0.00
2014-5-21,72.7,66.2,61.3,60.6,55.5,51.4,92,69,52,30.04,29.87,2,0,7,0.00
2014-5-22,69.1,64.0,60.3,66.8,62.6,59.7,99,95,87,29.91,29.78,2,0,6,0.00
2014-5-23,71.2,62.5,56.7,62.3,58.2,51.8,99,87,61,29.97,29.85,6,0,15,0.28
2014-5-24,74.8,60.6,55.0,62.2,57.1,53.3,99,89,61,30.11,29.95,5,1,8,0.64
2014-5-25,83.5,66.9,52.5,62.9,53.4,43.5,99,68,28,30.13,30.03,3,0,8,0.01
2014-5-26,89.6,73.4,60.1,59.1,55.5,50.6,82,56,31,30.09,29.93,3,1,8,0.00
2014-5-27,86.7,75.0,66.9,71.5,63.1,57.2,96,68,46,29.94,29.81,3,0,7,0.01
2014-5-28,68.9,61.9,54.5,66.5,59.2,49.1,97,91,82,30.19,29.82,3,1,7,0.04
2014-5-29,68.6,58.8,52.7,53.1,49.0,44.0,85,71,53,30.23,30.15,2,1,6,0.00
2014-5-30,78.2,65.1,53.8,57.7,51.1,44.2,84,62,37,30.18,30.00,5,1,10,0.00
2014-5-31,78.9,66.6,57.7,55.1,49.3,43.0,80,56,28,30.31,30.09,6,1,11,0.00
2014-6-1,80.2,65.2,53.2,56.4,47.5,37.6,84,57,25,30.38,30.26,3,0,5,0.00
2014-6-2,86.7,70.6,54.9,60.5,54.2,44.2,78,58,40,30.29,30.02,3,0,8,0.00
2014-6-3,90.7,73.2,62.8,72.2,65.2,57.7,99,78,46,30.06,29.81,2,0,7,0.27
2014-6-4,88.2,74.4,61.9,69.3,63.5,55.2,99,72,42,29.88,29.73,3,1,9,0.01
2014-6-5,75.4,66.1,59.5,66.2,59.3,53.0,99,81,48,29.84,29.67,5,1,12,0.65
2014-6-6,76.3,66.8,59.4,56.8,53.8,51.8,83,64,46,29.98,29.82,6,1,13,0.00
2014-6-7,85.3,71.2,59.6,59.7,55.7,52.5,82,60,39,30.03,29.94,3,1,7,0.00
2014-6-8,89.1,74.2,63.0,64.8,60.2,57.8,91,64,36,29.99,29.87,3,0,6,0.07
2014-6-9,70.9,66.7,62.6,69.1,64.8,57.7,99,94,65,29.97,29.91,2,1,6,0.93
2014-6-10,79.0,70.6,64.6,73.4,68.5,54.7,99,94,57,30.00,29.93,2,1,6,0.02
2014-6-11,69.8,65.0,60.6,68.7,63.5,59.9,99,95,87,30.13,29.99,3,1,11,0.06
2014-6-12,69.8,64.8,60.4,69.3,64.3,59.8,99,98,78,30.11,29.93,2,1,7,0.06
2014-6-13,85.5,70.6,66.4,76.9,69.3,66.1,99,96,71,29.93,29.73,3,0,8,0.64
2014-6-14,76.3,67.2,56.3,67.9,59.0,49.8,99,77,53,30.08,29.81,7,2,15,0.00
2014-6-15,81.9,68.2,54.7,59.1,55.9,52.1,95,68,43,30.15,30.06,7,1,13,0.00
2014-6-16,88.9,73.7,60.1,65.8,60.8,52.5,88,66,42,30.18,30.05,5,0,7,0.00
2014-6-17,94.1,79.5,68.5,73.6,68.1,63.7,89,70,45,30.09,29.88,2,0,6,0.00
2014-6-18,94.9,82.6,75.7,72.3,67.1,62.2,87,61,36,29.99,29.85,7,1,13,0.00
2014-6-19,77.0,72.1,68.0,72.4,67.8,64.0,97,87,68,30.04,29.93,2,0,8,0.07
2014-6-20,83.7,71.5,61.0,67.2,52.6,47.1,98,54,32,30.05,29.93,5,1,10,0.01
2014-6-21,82.9,71.7,61.5,58.4,53.3,47.1,77,53,36,30.00,29.89,3,1,8,0.00
2014-6-22,80.6,70.0,61.3,63.5,58.8,55.3,84,69,52,30.06,29.94,2,0,6,0.00
2014-6-23,84.4,73.3,62.2,64.8,61.1,57.7,90,67,49,30.17,30.06,2,0,6,0.00
2014-6-24,85.3,74.3,63.1,82.5,61.1,57.3,93,65,45,30.18,30.02,3,1,8,0.00
2014-6-25,90.5,76.5,67.6,75.5,70.5,60.3,98,83,56,30.05,29.84,3,0,8,0.83
2014-6-26,86.2,76.3,68.9,74.0,69.4,63.0,99,81,57,30.03,29.84,6,1,10,0.17
2014-6-27,82.8,74.4,64.0,70.1,66.0,59.1,91,76,57,30.25,29.96,2,0,5,0.00
2014-6-28,89.6,74.7,63.3,63.6,60.7,58.3,86,64,36,30.31,30.21,2,0,5,0.00
2014-6-29,88.4,74.6,64.2,68.1,62.9,57.7,91,69,47,30.28,30.11,2,0,6,0.00
2014-6-30,86.7,75.8,65.1,70.3,65.2,57.0,87,71,53,30.15,29.96,2,0,7,0.00
2014-7-1,93.7,80.9,70.0,75.3,71.2,66.4,93,74,51,29.99,29.84,3,1,8,0.00
2014-7-2,96.8,81.4,73.2,80.1,74.7,71.1,99,82,54,29.97,29.83,6,1,10,0.45
2014-7-3,87.5,76.9,70.5,80.6,74.4,69.9,99,93,77,30.03,29.89,3,0,12,0.43
2014-7-4,72.9,69.1,61.9,70.3,63.8,48.5,99,85,56,30.10,29.94,7,2,16,0.00
2014-7-5,83.3,70.5,58.8,58.6,55.3,51.8,85,61,38,30.19,30.08,7,1,12,0.00
2014-7-6,91.8,74.2,60.4,63.6,58.8,55.6,86,62,35,30.14,29.97,3,1,9,0.00
2014-7-10,72.7,72.7,72.7,60.2,60.2,60.2,65,65,65,30.22,30.22,1,1,3,0.00
2014-7-11,90.7,81.2,68.9,65.2,63.2,60.7,86,55,39,30.24,30.18,3,0,6,0.00
2014-7-12,90.0,77.4,66.0,69.6,65.3,62.1,95,69,45,30.25,30.11,3,0,7,0.00
2014-7-13,86.8,77.7,70.3,77.0,71.5,64.7,95,82,64,30.15,29.90,7,1,15,0.31
2014-7-14,83.5,74.8,70.5,78.5,73.0,69.9,99,94,79,29.98,29.82,3,0,9,0.73
2014-7-15,83.3,75.5,72.0,79.7,73.9,29.7,99,95,20,29.90,29.74,2,0,7,1.58
2014-7-16,83.7,73.3,64.6,72.1,64.9,59.1,99,77,51,29.92,29.77,3,1,9,0.04
2014-7-17,85.8,72.4,62.8,65.1,60.4,55.6,92,68,44,30.13,29.91,3,1,8,0.00
2014-7-18,83.7,72.2,60.6,62.6,58.8,55.0,88,65,42,30.26,30.13,3,0,6,0.00
2014-7-19,79.7,71.5,65.3,66.4,61.7,57.8,88,72,54,30.26,30.19,2,0,6,0.00
2014-7-20,83.1,72.7,66.4,67.2,63.8,58.8,90,75,53,30.20,30.07,3,1,7,0.00
2014-7-21,67.1,65.8,64.9,64.5,64.0,63.5,96,94,90,30.16,30.15,0,0,0,0.00